Latest Weather Observations for King Island Airport

IDT60801

Issued at 11:01 pm EST Saturday 18 April 2015 (issued every 30 minutes, with the page automatically refreshed every 10 minutes)

About weather observations | Map of weather stations | Latest weather observations for TAS | Other Formats
Station Details ID: 098017 Name: KING ISLAND AIRPORT Lat: -39.88 Lon: 143.88 Height: 37.0 m
Data from the previous 72 hours. | See also: Recent months at King Island Airport
Date/Time
EST
Temp
°C
App
Temp
°C
Dew
Point
Rel
Hum
%
Delta-T
°C
Wind Press
QNH
hPa
Press
MSL
hPa
Rain
since 9 am
mm
Dir
 
Spd
km/h
Gust
km/h
Spd
kts
Gust
kts
18/11:00pm 11.1 4.2 6.5 73 2.2 SW 32 39 17 21 1016.5 1016.5 3.8
18/10:30pm 11.7 4.6 5.3 65 2.9 SW 32 43 17 23 1016.2 1016.2 3.8
18/10:00pm 11.9 4.8 6.2 68 2.7 SW 33 48 18 26 1015.8 1015.8 3.8
18/09:30pm 12.1 4.7 6.6 69 2.6 WSW 35 54 19 29 1015.2 1015.2 3.8
18/09:25pm 12.1 4.5 5.9 66 2.9 WSW 35 54 19 29 1015.1 1015.1 3.8
18/09:00pm 12.3 5.3 6.1 66 2.9 WSW 32 41 17 22 1014.7 1014.6 3.8
18/08:31pm 12.6 5.6 5.8 63 3.2 WSW 32 50 17 27 1014.3 1014.2 3.8
18/08:30pm 12.5 5.3 5.7 63 3.2 WSW 33 50 18 27 1014.2 1014.1 3.8
18/08:18pm 12.6 5.8 5.1 60 3.5 WSW 30 48 16 26 1014.1 1014.0 3.8
18/08:00pm 12.3 5.2 6.4 67 2.8 WSW 33 48 18 26 1013.8 1013.7 3.8
18/07:30pm 12.5 5.5 6.1 65 3.0 WSW 32 43 17 23 1013.3 1013.2 3.8
18/07:08pm 12.8 6.6 6.2 64 3.1 WSW 28 46 15 25 1013.1 1013.0 3.8
18/07:00pm 12.8 6.3 6.6 66 3.0 WSW 30 44 16 24 1012.8 1012.7 3.8
18/06:30pm 12.6 5.4 6.0 64 3.1 WSW 33 48 18 26 1012.3 1012.2 3.8
18/06:21pm 12.2 6.0 6.3 67 2.8 WSW 28 46 15 25 1012.1 1012.0 3.8
18/06:00pm 12.5 7.1 8.0 74 2.2 WSW 26 39 14 21 1011.7 1011.6 3.8
18/05:30pm 10.9 5.3 8.8 87 1.0 WSW 28 44 15 24 1011.4 1011.3 3.8
18/05:17pm 12.1 6.5 8.9 81 1.6 WSW 28 54 15 29 1011.2 1011.1 3.6
18/05:00pm 12.0 6.8 8.8 81 1.6 WSW 26 37 14 20 1010.8 1010.7 3.6
18/04:30pm 11.3 5.4 7.6 78 1.8 WSW 28 37 15 20 1010.6 1010.5 3.6
18/04:00pm 11.4 5.9 9.3 87 1.1 WSW 28 37 15 20 1010.3 1010.2 3.4
18/03:30pm 11.2 6.0 10.1 93 0.6 WSW 28 37 15 20 1010.3 1010.2 3.0
18/03:11pm 11.2 6.0 10.3 94 0.5 WSW 28 37 15 20 1010.1 1010.0 2.8
18/03:01pm 11.0 5.4 10.1 94 0.5 WSW 30 39 16 21 1009.8 1009.8 2.6
18/03:00pm 11.0 5.4 10.1 94 0.5 WSW 30 39 16 21 1009.8 1009.8 2.6
18/02:55pm 11.2 4.7 10.3 94 0.5 WSW 35 50 19 27 1009.8 1009.8 2.4
18/02:43pm 11.0 4.4 10.1 94 0.5 WSW 35 56 19 30 1009.6 1009.6 2.2
18/02:33pm 11.4 4.6 10.6 95 0.4 WSW 37 54 20 29 1009.6 1009.6 2.2
18/02:30pm 11.3 4.1 10.5 95 0.4 SW 39 54 21 29 1009.5 1009.5 2.2
18/02:03pm 11.8 5.5 11.0 95 0.4 SW 35 54 19 29 1009.1 1009.1 1.8
18/02:00pm 12.3 6.1 11.5 95 0.4 SW 35 52 19 28 1009.1 1009.1 1.8
18/01:49pm 12.6 6.0 11.5 93 0.6 W 37 54 20 29 1008.8 1008.8 1.4
18/01:46pm 13.1 6.6 11.7 91 0.7 WNW 37 54 20 29 1008.7 1008.7 0.8
18/01:31pm 15.1 7.3 13.1 88 1.1 NW 46 57 25 31 1008.5 1008.5 0.0
18/01:30pm 15.1 7.0 13.1 88 1.1 NW 48 57 26 31 1008.5 1008.5 0.0
18/01:00pm 15.9 8.3 12.5 80 1.9 NW 44 57 24 31 1008.8 1008.8 0.0
18/12:30pm 16.3 7.5 12.3 77 2.2 NW 50 57 27 31 1009.2 1009.2 0.0
18/12:00pm 15.7 7.6 11.9 78 2.1 NNW 46 59 25 32 1009.7 1009.7 0.0
18/11:30am 16.1 7.1 11.7 75 2.4 NNW 50 61 27 33 1009.8 1009.8 0.0
18/11:00am 16.1 7.8 11.5 74 2.5 NNW 46 57 25 31 1010.1 1010.0 0.0
18/10:30am 16.5 8.8 11.4 72 2.8 NNW 43 54 23 29 1010.1 1010.0 0.0
18/10:00am 16.1 8.7 11.3 73 2.6 NW 41 50 22 27 1010.5 1010.4 0.0
18/09:30am 15.8 8.0 11.0 73 2.6 NW 43 50 23 27 1010.9 1010.8 0.0
18/09:00am 15.6 8.7 10.4 71 2.7 NW 37 48 20 26 1011.0 1010.9 0.0
18/08:30am 15.1 7.9 10.7 75 2.3 NW 39 48 21 26 1011.1 1011.0 0.0
18/08:00am 15.1 8.2 10.3 73 2.5 NW 37 46 20 25 1011.0 1010.9 0.0
18/07:30am 14.4 7.9 10.2 76 2.2 NW 35 46 19 25 1010.9 1010.8 0.0
18/07:00am 14.1 7.5 9.9 76 2.2 NW 35 44 19 24 1010.7 1010.6 0.0
18/06:30am 14.2 7.6 10.0 76 2.2 NW 35 48 19 26 1010.6 1010.5 0.0
18/06:00am 14.3 7.9 10.7 79 1.9 WNW 35 46 19 25 1010.5 1010.4 0.0
18/05:30am 14.2 8.1 10.6 79 1.9 WNW 33 43 18 23 1010.6 1010.5 0.0
18/05:00am 13.9 8.0 10.3 79 1.9 WNW 32 41 17 22 1010.4 1010.3 0.0
18/04:30am 13.6 8.3 9.8 78 2.0 WNW 28 35 15 19 1010.4 1010.3 0.0
18/04:00am 13.0 8.4 9.8 81 1.6 WNW 24 33 13 18 1010.3 1010.2 0.0
18/03:30am 13.1 7.6 9.0 76 2.1 NW 28 32 15 17 1010.4 1010.3 0.0
18/03:00am 13.3 8.6 9.2 76 2.1 WNW 24 30 13 16 1010.7 1010.6 0.0
18/02:30am 13.5 8.5 9.6 77 2.0 WNW 26 32 14 17 1011.0 1010.9 0.0
18/02:00am 13.8 8.5 9.8 77 2.1 NW 28 33 15 18 1011.6 1011.5 0.0
18/01:30am 14.1 9.1 9.7 75 2.3 NW 26 30 14 16 1011.8 1011.7 0.0
18/01:00am 14.5 9.4 9.3 71 2.7 NW 26 30 14 16 1012.1 1012.0 0.0
18/12:30am 13.4 12.7 12.0 91 0.8 N 7 20 4 11 1012.6 1012.5 0.0
18/12:00am 11.4 9.8 10.1 92 0.7 NE 9 9 5 5 1012.8 1012.7 0.0
 
Date/Time
EST
Temp
°C
App
Temp
°C
Dew
Point
Rel
Hum
%
Delta-T
°C
Wind Press
QNH
hPa
Press
MSL
hPa
Rain
since 9 am
mm
Dir
 
Spd
km/h
Gust
km/h
Spd
kts
Gust
kts
17/11:30pm 11.2 10.1 9.9 92 0.7 NE 6 9 3 5 1013.4 1013.3 0.0
17/11:00pm 10.7 8.9 9.3 91 0.7 NE 9 11 5 6 1013.9 1013.8 0.0
17/10:30pm 11.1 9.7 9.5 90 0.8 NE 7 9 4 5 1014.4 1014.3 0.0
17/10:00pm 11.0 9.5 9.3 89 0.9 ENE 7 9 4 5 1014.6 1014.5 0.0
17/09:30pm 11.2 9.7 9.3 88 1.0 E 7 7 4 4 1015.0 1014.9 0.0
17/09:00pm 11.3 9.8 9.0 86 1.1 ENE 7 7 4 4 1015.3 1015.3 0.0
17/08:30pm 11.7 9.9 9.4 86 1.2 ENE 9 11 5 6 1015.4 1015.4 0.0
17/08:00pm 11.6 10.2 9.5 87 1.1 E 7 9 4 5 1015.6 1015.6 0.0
17/07:30pm 11.7 9.9 9.3 85 1.2 E 9 9 5 5 1015.9 1015.9 0.0
17/07:00pm 11.9 10.4 9.3 84 1.3 E 7 9 4 5 1016.4 1016.4 0.0
17/06:30pm 12.4 10.9 9.2 81 1.6 NE 7 9 4 5 1016.6 1016.6 0.0
17/06:00pm 13.0 11.5 9.3 78 1.9 NNE 7 9 4 5 1016.7 1016.7 0.0
17/05:30pm 13.3 10.6 8.8 74 2.3 N 13 15 7 8 1016.5 1016.5 0.0
17/05:00pm 14.0 11.3 8.8 71 2.6 NNE 13 17 7 9 1016.5 1016.5 0.0
17/04:30pm 14.5 11.0 8.7 68 2.9 N 17 20 9 11 1017.0 1017.0 0.0
17/04:00pm 14.8 10.9 8.7 67 3.1 N 19 26 10 14 1017.4 1017.4 0.0
17/03:30pm 15.0 11.9 8.7 66 3.2 N 15 20 8 11 1017.4 1017.4 0.0
17/03:00pm 15.1 11.0 8.6 65 3.3 NNW 20 28 11 15 1017.8 1017.8 0.0
17/02:30pm 15.5 11.4 8.7 64 3.5 NNW 20 28 11 15 1017.9 1017.9 0.0
17/02:00pm 15.6 10.3 8.4 62 3.6 NNW 26 33 14 18 1018.5 1018.5 0.0
17/01:30pm 15.7 11.6 8.7 63 3.6 NW 20 28 11 15 1018.9 1018.9 0.0
17/01:00pm 15.9 11.3 8.2 60 3.9 NNW 22 32 12 17 1019.8 1019.8 0.0
17/12:30pm 16.0 12.1 8.5 61 3.8 NNW 19 26 10 14 1020.6 1020.6 0.0
17/12:00pm 15.7 12.5 8.4 62 3.7 NNE 15 20 8 11 1021.3 1021.3 0.0
17/11:30am 15.4 11.9 8.6 64 3.5 NNW 17 22 9 12 1021.8 1021.8 0.0
17/11:00am 15.3 12.9 8.8 65 3.3 NNW 11 15 6 8 1022.1 1022.1 0.0
17/10:30am 14.7 12.3 8.6 67 3.1 NNW 11 15 6 8 1022.7 1022.7 0.0
17/10:00am 14.6 12.8 8.1 65 3.2 NNW 7 11 4 6 1023.0 1023.0 0.0
17/09:30am 14.6 14.4 9.0 69 2.9 CALM 0 9 0 5 1023.3 1023.3 0.0
17/09:00am 13.3 12.2 9.9 80 1.7 E 6 7 3 4 1023.7 1023.7 0.0
17/08:30am 12.2 12.2 9.9 86 1.2 CALM 0 0 0 0 1023.8 1023.8 0.0
17/08:00am 11.5 11.1 9.8 89 0.9 ENE 2 7 1 4 1023.7 1023.7 0.0
17/07:30am 10.8 9.9 9.1 89 0.8 ESE 4 7 2 4 1023.6 1023.6 0.0
17/07:00am 11.0 10.8 8.9 87 1.0 CALM 0 0 0 0 1023.2 1023.2 0.0
17/06:30am 10.6 10.3 8.7 88 0.9 CALM 0 0 0 0 1023.2 1023.2 0.0
17/06:00am 10.1 9.7 8.4 89 0.8 CALM 0 0 0 0 1023.2 1023.2 0.0
17/05:30am 10.1 8.4 8.4 89 0.8 E 7 7 4 4 1023.2 1023.2 0.0
17/05:00am 9.9 9.4 7.8 87 1.0 CALM 0 0 0 0 1023.3 1023.3 0.0
17/04:30am 11.8 10.2 8.1 78 1.8 W 6 9 3 5 1023.2 1023.2 0.0
17/04:00am 12.0 9.4 7.9 76 2.0 W 11 13 6 7 1023.0 1023.0 0.0
17/03:30am 12.8 10.9 8.9 77 2.0 WNW 9 13 5 7 1023.2 1023.2 0.0
17/03:00am 12.2 10.1 8.3 77 1.9 W 9 11 5 6 1023.5 1023.5 0.0
17/02:30am 12.1 9.5 7.8 75 2.1 W 11 13 6 7 1023.8 1023.8 0.0
17/02:00am 12.7 10.2 8.4 75 2.1 W 11 13 6 7 1024.2 1024.2 0.0
17/01:30am 13.2 10.9 8.9 75 2.2 WNW 11 15 6 8 1024.3 1024.3 0.0
17/01:00am 13.4 10.6 8.5 72 2.4 WNW 13 15 7 8 1024.5 1024.5 0.0
17/12:30am 13.1 10.7 8.6 74 2.3 W 11 13 6 7 1024.8 1024.8 0.0
17/12:00am 13.3 10.9 8.6 73 2.3 W 11 13 6 7 1024.9 1024.9 0.0
 
Date/Time
EST
Temp
°C
App
Temp
°C
Dew
Point
Rel
Hum
%
Delta-T
°C
Wind Press
QNH
hPa
Press
MSL
hPa
Rain
since 9 am
mm
Dir
 
Spd
km/h
Gust
km/h
Spd
kts
Gust
kts
16/11:30pm 13.5 10.8 8.8 73 2.4 WNW 13 19 7 10 1025.3 1025.3 0.0
16/11:00pm 12.9 10.8 8.4 74 2.2 W 9 13 5 7 1025.5 1025.5 0.0
16/10:30pm 12.8 10.7 8.3 74 2.2 W 9 11 5 6 1025.7 1025.7 0.0
16/10:00pm 13.2 10.2 7.9 70 2.6 W 13 19 7 10 1026.0 1026.0 0.0
16/09:30pm 13.9 10.4 7.2 64 3.3 WSW 15 20 8 11 1025.9 1025.9 0.0
16/09:00pm 13.9 10.5 7.7 66 3.0 W 15 20 8 11 1025.7 1025.7 0.0
16/08:30pm 13.7 10.2 7.2 65 3.2 W 15 22 8 12 1025.6 1025.6 0.0
16/08:00pm 13.8 9.9 7.1 64 3.2 WSW 17 26 9 14 1025.3 1025.3 0.0
16/07:30pm 13.8 10.3 7.3 65 3.2 WSW 15 20 8 11 1025.3 1025.3 0.0
16/07:00pm 13.7 9.7 6.8 63 3.3 WSW 17 24 9 13 1025.1 1025.1 0.0
16/06:30pm 13.5 9.9 6.8 64 3.2 WSW 15 20 8 11 1024.9 1024.9 0.0
16/06:00pm 13.6 9.3 6.9 64 3.2 W 19 28 10 15 1024.9 1024.9 0.0
16/05:30pm 13.7 9.1 6.3 61 3.5 W 20 30 11 16 1024.9 1024.9 0.0
16/05:00pm 13.9 10.2 7.9 67 3.0 W 17 26 9 14 1024.6 1024.6 0.0
16/04:30pm 13.9 9.0 7.0 63 3.4 WSW 22 32 12 17 1024.6 1024.6 0.0
16/04:00pm 14.0 9.3 6.1 59 3.8 W 20 35 11 19 1024.7 1024.7 0.0
16/03:30pm 14.4 9.4 6.5 59 3.8 WSW 22 30 12 16 1024.5 1024.5 0.0
16/03:00pm 14.4 9.0 6.3 58 3.9 WSW 24 30 13 16 1024.5 1024.5 0.0
16/02:30pm 14.6 8.9 6.7 59 3.8 WSW 26 35 14 19 1024.5 1024.5 0.0
16/02:00pm 14.7 9.0 6.5 58 4.0 WSW 26 35 14 19 1024.7 1024.7 0.0
16/01:30pm 14.8 9.1 6.9 59 3.9 WSW 26 33 14 18 1024.9 1024.9 0.0
16/01:00pm 15.2 9.6 7.0 58 4.0 WSW 26 35 14 19 1024.9 1024.9 0.0
16/12:30pm 14.5 8.9 7.1 61 3.6 WSW 26 33 14 18 1024.9 1024.9 0.0
16/12:00pm 14.7 9.3 6.5 58 4.0 SW 24 33 13 18 1025.2 1025.2 0.0
16/11:30am 14.5 9.5 6.3 58 4.0 SW 22 30 12 16 1025.2 1025.2 0.0
16/11:00am 14.2 9.1 6.1 58 3.9 SW 22 41 12 22 1025.3 1025.3 0.0
16/10:30am 14.1 8.7 6.5 60 3.7 SW 24 35 13 19 1025.3 1025.3 0.0
16/10:00am 13.8 8.5 6.7 62 3.4 SW 24 33 13 18 1025.3 1025.3 0.0
16/09:30am 13.3 7.9 6.2 62 3.4 SW 24 33 13 18 1025.2 1025.2 0.0
16/09:00am 13.3 7.9 6.4 63 3.3 SW 24 37 13 20 1024.9 1024.9 0.2
16/08:30am 13.0 7.6 6.4 64 3.2 SW 24 33 13 18 1024.5 1024.5 0.2
16/08:00am 12.5 7.1 6.3 66 2.9 SW 24 33 13 18 1024.4 1024.4 0.2
16/07:30am 13.0 7.9 7.5 69 2.7 WSW 24 35 13 19 1024.0 1024.0 0.2
16/07:00am 13.1 7.3 7.8 70 2.6 SW 28 37 15 20 1023.7 1023.7 0.2
16/06:30am 13.2 7.5 8.3 72 2.4 SW 28 39 15 21 1023.2 1023.2 0.2
16/06:00am 13.3 9.4 9.5 78 1.9 WSW 20 32 11 17 1022.6 1022.6 0.2
16/05:30am 13.0 9.1 9.6 80 1.7 SW 20 28 11 15 1022.2 1022.2 0.2
16/05:00am 12.7 9.2 10.1 84 1.3 SW 19 26 10 14 1021.6 1021.6 0.2
16/04:30am 12.9 8.9 10.3 84 1.3 WSW 22 32 12 17 1021.1 1021.1 0.2
16/04:00am 13.3 9.4 10.8 85 1.3 SW 22 30 12 16 1020.9 1020.9 0.2
16/03:30am 13.4 8.8 10.9 85 1.3 SW 26 33 14 18 1020.7 1020.7 0.2
16/03:00am 13.3 9.0 10.7 84 1.4 SW 24 32 13 17 1020.4 1020.4 0.2
16/02:30am 13.8 10.2 11.7 87 1.1 SW 22 30 12 16 1020.5 1020.5 0.2
16/02:00am 13.6 9.2 11.8 89 1.0 SW 26 35 14 19 1020.9 1020.9 0.2
16/01:32am 14.0 10.0 12.9 93 0.6 WSW 26 39 14 21 1020.4 1020.4 0.2
16/01:30am 14.0 9.6 12.9 93 0.6 SW 28 39 15 21 1020.4 1020.4 0.2
16/01:09am 14.5 10.9 13.0 91 0.8 WSW 24 39 13 21 1020.4 1020.4 0.2
16/01:00am 15.3 12.2 13.5 89 1.0 W 22 30 12 16 1020.3 1020.3 0.0
16/12:37am 15.0 11.0 13.0 88 1.1 W 26 33 14 18 1020.3 1020.3 0.0
16/12:30am 15.2 11.6 13.2 88 1.1 W 24 33 13 18 1020.3 1020.3 0.0
16/12:00am 15.1 11.6 13.5 90 0.9 W 24 37 13 20 1020.2 1020.2 0.0
 
Date/Time
EST
Temp
°C
App
Temp
°C
Dew
Point
Rel
Hum
%
Delta-T
°C
Wind Press
QNH
hPa
Press
MSL
hPa
Rain
since 9 am
mm
Dir
 
Spd
km/h
Gust
km/h
Spd
kts
Gust
kts
15/11:57pm 15.3 12.3 13.8 91 0.8 W 22 33 12 18 1020.2 1020.2 0.0
15/11:30pm 15.3 12.4 14.0 92 0.7 W 22 32 12 17 1020.2 1020.2 0.0
15/11:10pm 15.6 12.5 14.5 93 0.6 W 24 33 13 18 1020.1 1020.1 0.0

Other Formats:

Comma delimited format used in spreadsheet applications
http://www.bom.gov.au/fwo/IDT60801/IDT60801.94850.axf

JavaScript Object Notation format (JSON) in row-major order
http://www.bom.gov.au/fwo/IDT60801/IDT60801.94850.json